Racecast

Claire Dicker

Davis (CA) · 12 · SFLCA D1SJS D1YOLO · Compare head to head

Athlete rating 125.6 2015 TF season
Best race 128.7 XC
Races 55
Seasons 4 2012 — 2015

RankedNation #8264·CA #1170·CA D1 #607·SJS #113·SJS D1 #84·SFL #31·Team #17 ?

Speed rating — all races

Cross Country

XC speed rating

2014 XC 122.4

Davis (CA) · Grade 12

Date Meet Event Result Place Rating Difficulty PR/SR Flags
2014-11-29 Woodward Park 5000m 20:03 120th · 4th on team 125.1 +0.013 CSR
2014-11-01 Willow Hills Reservoir Course 5000m 19:58 11th · 6th on team 128.7 +0.045 ★CR ★R SR CSR RSR
2014-10-25 Mt. San Antonio College 4715m 19:53.7 30th · 2nd on team 125.4 +0.077 ★PR ★CR SR CSR RSR
2014-10-11 Woodward Park 5000m 21:13.5 29th · 3rd on team 117.9 +0.013 CSR
2014-10-08 Granite Park 5000m 21:44 24th · 9th on team 114.9 +0.002 CSR
2014-09-27 Elkhorn Golf Course 5000m 20:04 17th · 3rd on team 121.3 -0.016 SR CSR
2014-09-20 Newhall Community Park 3218m 13:12 1st · 1st on team 123.0 +0.065 ★PR ★CR SR CSR RSR
2014-09-13 Willow Hills Reservoir Course 5000m 21:09 20th · 10th on team 122.6 +0.045 SR CSR RSR

2013 XC 122.2

Davis (CA) · Grade 11

Date Meet Event Result Place Rating Difficulty PR/SR Flags
2013-11-02 Willow Hills Reservoir Course 5000m 20:40 7th · 6th on team 124.4 +0.045 CR CSR
2013-10-26 Mt. San Antonio College 4715m 20:09 2nd · 1st on team 123.6 +0.077 PR CR SR CSR
2013-10-12 Woodward Park 5000m 20:02 112th · 7th on team 124.3 +0.013 ★CR CSR
2013-10-01 Granite Park 5000m 21:19 16th · 12th on team 115.9 +0.002 ★CR CSR
2013-09-28 Elkhorn Golf Course 5000m 19:15 3rd · 1st on team 126.0 -0.016 ★PR ★CR R SR CSR RSR
2013-09-21 Muller Vineyards 5000m 21:32 21st · 5th on team 122.2 +0.081 ★CR SR CSR RSR
2013-09-07 Lagoon Valley Park 4828m 21:15 26th · 5th on team 119.1 +0.056 ★PR ★CR SR CSR RSR

2012 XC 117.3

Davis (CA) · Grade 10

Date Meet Event Result Place Rating Difficulty PR/SR Flags
2012-11-03 Calaveras County Fairgrounds 3218m 13:21 2nd · 1st on team 124.1 +0.084 PR ★CR R SR CSR RSR
2012-10-06 Woodward Park 5000m 20:17 3rd · 1st on team 123.4 +0.013 PR CR R SR CSR RSR
2012-10-04 Granite Park 3540m 14:35.5 3rd · 2nd on team 115.8 -0.001 ★PR ★CR R SR CSR RSR
2012-09-08 Granite Park 3218m 14:14.5 5th · 1st on team 105.8 -0.013 PR ★CR R SR CSR RSR

Track & Field

TF speed rating

2015 TF 121.3

Davis (CA) · Grade 12

Date Meet Event Result Place Rating Difficulty PR/SR Flags
2015-05-02 Sacramento Meet of Champions 3200m 12:30.48 41st · 3rd on team 119.4 -0.034
2015-04-22 Davis vs. Monterey Trail 1600m 5:34.56 4th · 2nd on team 125.2 -0.021
2015-04-22 Davis vs. Monterey Trail 3200m 12:44.74 5th · 4th on team 117.9 -0.021
2015-04-11 Halden Invitational 1600m 5:32.65 16th · 4th on team 125.4 -0.026 ★PR SR
2015-04-08 Delta: Davis, Jes/SF v. Sheldon 1600m 5:36.02 6th · 4th on team 123.2 -0.031
2015-03-18 Delta: Elk Grove, Franklin vs Davis 1600m 5:39.31 8th · 7th on team 122.8 -0.026
2015-03-18 Delta: Elk Grove, Franklin vs Davis 3200m 11:55.68 2nd · 2nd on team 126.0 -0.026 SR RSR
2015-03-11 Delta League Meet: Grant, PG, Dav 1600m 5:33.25 5th · 5th on team 124.5 -0.026 PR SR RSR
2015-03-11 Delta League Meet: Grant, PG, Dav 3200m 12:06.69 4th · 3rd on team 122.7 -0.026 SR
2015-03-07 11th Annual CSUS Track Classic 3200m 12:18.2 13th · 4th on team 119.4 -0.044 SR RSR
2015-02-20 Blue vs. White Intrasquad 800m 2:36.15 5th · 5th on team 117.9 -0.026 ★PR SR RSR
2015-02-20 Blue vs. White Intrasquad 1600m 6:15 7th · 7th on team 110.8 -0.026 SR

2014 TF 121.2

Davis (CA) · Grade 11

Date Meet Event Result Place Rating Difficulty PR/SR Flags
2014-05-14 DVC League Trials and Finals 3200m 12:01.87 7th · 6th on team 124.8 -0.021
2014-05-03 Sacramento Meet of Champions 3200m 11:58.94 16th · 1st on team 124.0 -0.034
2014-04-23 DVC Center Meet #2 3200m 12:56.56 7th · 5th on team 115.3 -0.026
2014-04-23 DVC Center Meet #2 1600m 5:39.53 7th · 6th on team 122.8 -0.026
2014-04-19 Woody Wilson Classic 3200m 11:51.5 15th · 3rd on team 125.1 -0.034 SR RSR
2014-04-12 Halden Invitational 3200m 11:56.6 13th · 5th on team 125.0 -0.026 SR RSR
2014-03-19 DVC Center Meet #1 3200m 12:10.75 6th · 5th on team 121.3 -0.033 SR
2014-03-19 DVC Center Meet #1 1600m 5:38.96 9th · 8th on team 121.9 -0.033 SR
2014-03-12 Dual: Davis, St. Francis, Jesuit 3200m 12:19.31 4th · 3rd on team 122.0 -0.026 SR RSR
2014-03-08 10th Annual CSUS Track Classic 3000m 11:36.65 10th · 4th on team 119.0 -0.032 ★PR SR
2014-03-05 The Spade! 1600m 5:41.83 8th · 8th on team 121.6 -0.026 SR RSR
2014-03-05 The Spade! 3200m 13:20.68 7th · 7th on team 111.5 -0.026 SR
2014-02-26 Time Trials 1600m 5:43.5 6th · 6th on team 121.4 -0.026 SR RSR

2013 TF 120.3

Davis (CA) · Grade 10

Date Meet Event Result Place Rating Difficulty PR/SR Flags
2013-05-08 DVC Championships 3200m 12:22.5 8th · 6th on team 117.9 -0.033
2013-04-17 DVC Meet: Grant, Monterey Trail, Davis 1600m 5:37.06 4th · 4th on team 123.7 -0.026 PR SR
2013-04-17 DVC Meet: Grant, Monterey Trail, Davis 3200m 12:22.54 3rd · 3rd on team 120.4 -0.026
2013-04-13 Halden Invitational 3200m 11:47.95 7th · 3rd on team 125.9 -0.026 ★PR R SR RSR
2013-04-10 DVC Meet: Laguna Creek vs. Davis 1600m 5:56.7 1st · 1st on team 116.7 -0.026
2013-03-20 Battle of the Spade 3200m 12:06.31 3rd · 3rd on team 122.2 -0.026 PR SR
2013-03-16 Depth Charge 3200m 12:56.32 3rd · 1st on team 115.2 -0.020 PR SR
2013-03-06 St. Francis/Jesuit vs. Davis Sr. 1600m 5:37.32 1st · 1st on team 123.5 -0.026 PR SR RSR
2013-03-02 9th Annual CSUS Track Classic 1500m 5:14.6 23rd · 4th on team 121.4 -0.032 ★PR SR RSR
2013-02-20 Blue vs. White Intrasquad 800m 2:36.95 7th · 7th on team 117.4 -0.026 PR SR RSR
2013-02-20 Blue vs. White Intrasquad 1600m 5:48.6 8th · 8th on team 119.1 -0.026 PR SR RSR